Time;durP1;ratioP1;P1;durP2;ratioP2;P2;SDS_P1;SDS_P2;PMS_P1;PMS_P2;Temp;Humidity;BMP_temperature;BMP_pressure;BME280_temperature;BME280_humidity;BME280_pressure;Samples;Min_cycle;Max_cycle;Signal;HPM_P1;HPM_P2
2022/03/18 00:00:54;;;;;;;29.17;26.20;;;8.90;99.20;;;;;;5119290;28;20748;-44
2022/03/18 00:03:19;;;;;;;29.00;26.00;;;8.90;99.20;;;;;;5117702;28;20177;-44
2022/03/18 00:05:45;;;;;;;27.63;24.73;;;8.90;99.20;;;;;;5119045;28;20724;-44
2022/03/18 00:08:11;;;;;;;28.00;25.20;;;8.90;99.30;;;;;;5118049;27;20180;-44
2022/03/18 00:10:37;;;;;;;30.67;25.50;;;8.90;99.40;;;;;;5130489;27;20171;-44
2022/03/18 00:13:04;;;;;;;27.77;24.87;;;8.80;99.30;;;;;;5135345;27;20559;-44
2022/03/18 00:15:30;;;;;;;28.33;25.43;;;8.80;99.30;;;;;;5105210;28;20430;-45
2022/03/18 00:17:56;;;;;;;26.70;24.00;;;8.80;99.40;;;;;;5119088;28;20430;-44
2022/03/18 00:20:22;;;;;;;27.70;24.90;;;8.80;99.30;;;;;;5120315;28;20518;-44
2022/03/18 00:22:48;;;;;;;27.93;24.93;;;8.80;99.40;;;;;;5120256;28;20463;-44
2022/03/18 00:25:16;;;;;;;26.47;23.67;;;8.80;99.30;;;;;;5118589;28;20429;-45
2022/03/18 00:27:45;;;;;;;26.53;23.70;;;8.80;99.30;;;;;;5119961;28;20800;-44
2022/03/18 00:30:16;;;;;;;25.87;23.17;;;8.80;99.30;;;;;;5118028;28;20414;-44
2022/03/18 00:32:42;;;;;;;26.90;24.13;;;8.80;99.30;;;;;;5102161;28;20824;-43
2022/03/18 00:35:09;;;;;;;25.80;23.07;;;8.80;99.30;;;;;;5118237;28;20426;-44
2022/03/18 00:37:38;;;;;;;25.73;23.20;;;8.80;99.30;;;;;;5119446;28;20414;-44
2022/03/18 00:40:05;;;;;;;28.17;25.17;;;8.70;99.30;;;;;;5118667;28;20521;-44
2022/03/18 00:42:31;;;;;;;27.27;24.47;;;8.70;99.30;;;;;;5101753;28;20425;-44
2022/03/18 00:44:58;;;;;;;27.03;24.27;;;8.70;99.40;;;;;;5118855;28;20429;-43
2022/03/18 00:52:52;;;;;;;14.57;13.07;;;8.70;99.40;;;;;;5119195;28;20509;-49
2022/03/18 00:55:18;;;;;;;15.37;13.83;;;9.20;99.90;;;;;;5118615;28;20466;-45
2022/03/18 00:57:43;;;;;;;15.03;13.53;;;9.70;99.90;;;;;;5119655;28;20168;-44
2022/03/18 01:00:10;;;;;;;21.57;18.60;;;10.30;99.90;;;;;;5117765;28;20259;-44
2022/03/18 01:02:36;;;;;;;21.90;19.70;;;10.40;99.60;;;;;;5101322;28;20567;-44
2022/03/18 01:05:01;;;;;;;22.70;20.07;;;10.40;98.20;;;;;;5117579;28;20433;-44
2022/03/18 01:07:28;;;;;;;22.10;19.90;;;10.30;97.20;;;;;;5101923;28;20264;-44
2022/03/18 01:09:54;;;;;;;22.80;20.50;;;10.10;96.80;;;;;;5118096;28;20451;-44
2022/03/18 01:12:20;;;;;;;23.03;20.63;;;9.90;97.30;;;;;;5119056;28;20467;-44
2022/03/18 01:14:46;;;;;;;23.40;21.10;;;9.70;97.20;;;;;;5118669;28;20426;-44
2022/03/18 01:17:11;;;;;;;25.40;22.73;;;9.60;97.40;;;;;;5118647;28;20188;-44
2022/03/18 01:19:38;;;;;;;25.07;21.17;;;9.50;97.60;;;;;;5117982;28;20202;-45
2022/03/18 01:22:03;;;;;;;24.53;22.10;;;9.30;97.70;;;;;;5119142;28;20208;-44
2022/03/18 01:24:29;;;;;;;24.07;21.77;;;9.20;97.90;;;;;;5116101;28;20503;-44
2022/03/18 01:26:55;;;;;;;23.10;20.70;;;9.10;98.10;;;;;;5117577;28;20454;-44
2022/03/18 01:29:20;;;;;;;24.40;22.00;;;9.10;98.20;;;;;;5118082;28;20172;-44
2022/03/18 01:31:48;;;;;;;23.00;20.63;;;9.00;98.30;;;;;;5116306;28;20863;-44
2022/03/18 01:34:13;;;;;;;24.10;21.60;;;8.90;98.40;;;;;;5100045;28;20168;-44
2022/03/18 01:36:39;;;;;;;25.00;22.30;;;8.90;98.60;;;;;;5116428;28;20899;-44
2022/03/18 01:39:05;;;;;;;22.63;20.23;;;8.80;98.60;;;;;;5118859;28;20171;-44
2022/03/18 01:41:32;;;;;;;23.53;21.17;;;8.80;98.70;;;;;;5117940;28;20328;-43
2022/03/18 01:43:57;;;;;;;23.70;21.20;;;8.80;98.70;;;;;;5118821;28;20418;-44
2022/03/18 01:46:24;;;;;;;23.20;20.70;;;8.70;98.80;;;;;;5117562;28;20476;-44
2022/03/18 01:48:50;;;;;;;23.40;21.00;;;8.70;98.80;;;;;;5118579;28;20172;-44
2022/03/18 01:51:16;;;;;;;22.83;20.57;;;8.70;98.90;;;;;;5117389;28;20521;-44
2022/03/18 01:53:43;;;;;;;23.70;21.30;;;8.70;99.00;;;;;;5118632;28;20428;-44
2022/03/18 01:56:09;;;;;;;24.47;21.37;;;8.60;98.90;;;;;;5116884;28;20903;-44
2022/03/18 01:58:35;;;;;;;23.00;20.70;;;8.60;98.90;;;;;;5118560;28;20426;-44
2022/03/18 02:01:02;;;;;;;22.67;20.30;;;8.60;99.00;;;;;;5117144;28;20456;-44
2022/03/18 02:03:27;;;;;;;20.97;18.93;;;8.60;99.10;;;;;;5118415;28;20488;-44
2022/03/18 02:05:53;;;;;;;24.47;21.23;;;8.60;99.20;;;;;;5116859;28;20487;-44
2022/03/18 02:08:20;;;;;;;23.80;21.40;;;8.50;99.20;;;;;;5119030;28;20182;-44
2022/03/18 02:10:46;;;;;;;22.43;20.13;;;8.50;99.20;;;;;;5117372;28;20173;-44
2022/03/18 02:13:12;;;;;;;22.40;20.10;;;8.50;99.20;;;;;;5118688;28;20870;-44
2022/03/18 02:15:38;;;;;;;23.20;20.53;;;8.50;99.20;;;;;;5118154;28;20429;-44
2022/03/18 02:18:05;;;;;;;22.43;20.07;;;8.50;99.20;;;;;;5117186;28;20734;-44
2022/03/18 02:20:32;;;;;;;24.43;20.90;;;8.50;99.20;;;;;;5118329;28;20429;-44
2022/03/18 02:22:57;;;;;;;23.27;20.87;;;8.40;99.20;;;;;;5116863;28;20432;-44
2022/03/18 02:25:23;;;;;;;23.77;21.30;;;8.40;99.30;;;;;;5100454;28;20419;-44
2022/03/18 02:27:58;;;;;;;22.80;20.47;;;8.40;99.30;;;;;;5099339;28;20176;-44
2022/03/18 02:30:24;;;;;;;24.10;20.83;;;8.40;99.30;;;;;;5121629;28;20236;-44
2022/03/18 02:32:50;;;;;;;21.53;19.40;;;8.30;99.30;;;;;;5121021;28;20841;-44
2022/03/18 02:35:16;;;;;;;22.27;20.00;;;8.30;99.30;;;;;;5122088;28;20410;-44
2022/03/18 02:37:42;;;;;;;22.17;19.87;;;8.30;99.40;;;;;;5121275;28;20503;-44
2022/03/18 02:40:08;;;;;;;23.60;21.10;;;8.30;99.40;;;;;;5122446;28;20173;-44
2022/03/18 02:42:34;;;;;;;20.87;18.53;;;8.30;99.40;;;;;;5121150;28;20264;-44
2022/03/18 02:45:00;;;;;;;22.63;20.20;;;8.30;99.40;;;;;;5122161;28;20483;-44
2022/03/18 02:47:26;;;;;;;23.53;20.60;;;8.30;99.40;;;;;;5121371;28;20467;-44
2022/03/18 02:49:52;;;;;;;23.53;21.13;;;8.30;99.40;;;;;;5122241;28;20409;-43
2022/03/18 02:52:19;;;;;;;22.23;19.90;;;8.30;99.40;;;;;;5120911;28;20191;-44
2022/03/18 02:54:45;;;;;;;21.43;19.27;;;8.30;99.30;;;;;;5122006;28;20306;-44
2022/03/18 02:57:12;;;;;;;23.73;20.00;;;8.30;99.40;;;;;;5121047;28;20435;-44
2022/03/18 02:59:37;;;;;;;23.30;20.83;;;8.30;99.30;;;;;;5122027;28;20655;-44
2022/03/18 03:02:03;;;;;;;22.30;19.87;;;8.30;99.30;;;;;;5120697;28;20437;-45
2022/03/18 03:04:29;;;;;;;22.43;20.03;;;8.30;99.30;;;;;;5121375;28;20184;-44
2022/03/18 03:09:39;;;;;;;21.10;18.73;;;8.30;99.30;;;;;;5121482;28;20174;-44
2022/03/18 03:12:05;;;;;;;24.93;20.83;;;8.30;99.30;;;;;;5120586;28;20432;-44
2022/03/18 03:14:30;;;;;;;22.33;19.93;;;8.30;99.50;;;;;;5121683;28;20176;-44
2022/03/18 03:16:56;;;;;;;22.53;20.27;;;8.30;99.20;;;;;;5120647;28;20477;-44
2022/03/18 03:19:21;;;;;;;22.23;20.13;;;8.30;99.10;;;;;;5121834;28;20252;-44
2022/03/18 03:21:47;;;;;;;23.20;19.80;;;8.30;99.10;;;;;;5120443;28;20185;-44
2022/03/18 03:24:14;;;;;;;21.30;18.83;;;8.30;99.20;;;;;;5121434;28;20174;-44
2022/03/18 03:26:40;;;;;;;21.80;19.60;;;8.30;99.20;;;;;;5119833;28;20455;-44
2022/03/18 03:29:05;;;;;;;22.33;19.93;;;8.30;99.20;;;;;;5121543;28;20829;-44
2022/03/18 03:31:31;;;;;;;21.33;19.13;;;8.20;99.10;;;;;;5121611;28;20175;-44
2022/03/18 03:33:56;;;;;;;29.33;20.90;;;8.30;99.20;;;;;;5121333;28;20271;-44
2022/03/18 03:36:23;;;;;;;22.30;19.27;;;8.20;99.20;;;;;;5121666;28;20215;-44
2022/03/18 03:38:49;;;;;;;21.60;17.73;;;8.20;99.10;;;;;;5119913;28;20176;-44
2022/03/18 03:41:14;;;;;;;21.17;19.07;;;8.20;99.10;;;;;;5120420;28;20410;-44
2022/03/18 03:43:41;;;;;;;20.77;18.67;;;8.30;99.10;;;;;;5120314;28;20177;-44
2022/03/18 03:46:07;;;;;;;19.30;17.40;;;8.30;99.10;;;;;;5120751;28;20212;-44
2022/03/18 03:48:32;;;;;;;19.40;17.07;;;8.20;99.10;;;;;;5120409;28;20491;-45
2022/03/18 03:50:58;;;;;;;20.03;17.93;;;8.20;99.00;;;;;;5121376;28;20197;-44
2022/03/18 03:53:24;;;;;;;19.53;16.57;;;8.20;99.10;;;;;;5119430;28;20180;-44
2022/03/18 03:55:49;;;;;;;19.17;17.13;;;8.30;99.00;;;;;;5120510;28;20247;-44
2022/03/18 03:58:15;;;;;;;19.33;16.90;;;8.20;98.90;;;;;;5119283;28;20180;-43
2022/03/18 04:00:41;;;;;;;18.03;16.13;;;8.20;98.90;;;;;;5120213;28;20574;-44
2022/03/18 04:03:06;;;;;;;18.07;16.23;;;8.20;98.90;;;;;;5117940;28;20173;-44
2022/03/18 04:05:33;;;;;;;18.17;15.30;;;8.20;98.80;;;;;;5119148;28;20211;-44
2022/03/18 04:07:59;;;;;;;18.70;16.70;;;8.20;98.90;;;;;;5117933;28;20430;-44
2022/03/18 04:10:25;;;;;;;18.53;16.53;;;8.20;98.90;;;;;;5119315;28;20402;-44
2022/03/18 04:12:51;;;;;;;18.50;16.60;;;8.20;98.90;;;;;;5117574;28;20595;-44
2022/03/18 04:15:16;;;;;;;19.30;17.33;;;8.20;98.90;;;;;;5119342;28;20505;-44
2022/03/18 04:17:44;;;;;;;19.10;17.07;;;8.20;98.80;;;;;;5118893;28;20188;-44
2022/03/18 04:20:12;;;;;;;19.17;16.33;;;8.20;98.90;;;;;;5120728;28;20168;-44
2022/03/18 04:22:38;;;;;;;17.03;15.27;;;8.10;98.80;;;;;;5119106;28;20435;-44
2022/03/18 04:25:05;;;;;;;17.20;15.47;;;8.10;98.80;;;;;;5120518;28;20402;-44
2022/03/18 04:27:31;;;;;;;20.53;18.43;;;8.10;98.80;;;;;;5119290;28;20465;-44
2022/03/18 04:29:57;;;;;;;18.10;16.20;;;8.10;98.80;;;;;;5120264;28;20410;-44
2022/03/18 04:32:22;;;;;;;18.83;16.17;;;8.10;98.70;;;;;;5118595;28;20451;-44
2022/03/18 04:34:48;;;;;;;17.80;15.90;;;8.10;98.80;;;;;;5119670;28;20169;-44
2022/03/18 04:37:14;;;;;;;18.60;16.70;;;8.10;98.80;;;;;;5118797;28;20226;-44
2022/03/18 04:39:39;;;;;;;17.97;16.07;;;8.10;98.80;;;;;;5119885;28;20263;-44
2022/03/18 04:42:05;;;;;;;21.13;18.00;;;8.10;98.80;;;;;;5118120;28;20630;-44
2022/03/18 04:44:31;;;;;;;18.97;17.03;;;8.10;98.80;;;;;;5120004;28;20181;-44
2022/03/18 04:46:56;;;;;;;18.40;16.50;;;8.10;98.80;;;;;;5117766;28;20244;-44
2022/03/18 04:49:22;;;;;;;20.07;18.00;;;8.10;98.80;;;;;;5119282;28;20192;-44
2022/03/18 04:51:47;;;;;;;18.87;16.87;;;8.10;98.80;;;;;;5115535;28;20176;-44
2022/03/18 04:54:13;;;;;;;18.80;16.00;;;8.10;98.80;;;;;;5117946;28;20183;-44
2022/03/18 04:59:23;;;;;;;19.20;17.20;;;8.10;98.80;;;;;;5118795;28;20234;-44
2022/03/18 05:01:49;;;;;;;19.40;17.40;;;8.00;98.60;;;;;;5117695;28;20438;-44
2022/03/18 05:04:14;;;;;;;20.20;17.10;;;8.00;98.70;;;;;;5120003;28;20168;-46
2022/03/18 05:06:40;;;;;;;20.33;17.30;;;8.00;98.70;;;;;;5119650;28;20196;-45
2022/03/18 05:09:06;;;;;;;21.37;18.80;;;8.00;98.70;;;;;;5121012;28;20184;-46
2022/03/18 05:11:32;;;;;;;20.57;17.30;;;8.10;99.00;;;;;;5118175;28;20168;-45
2022/03/18 05:13:58;;;;;;;19.83;17.47;;;8.10;98.70;;;;;;5119933;28;20410;-46
2022/03/18 05:16:25;;;;;;;21.47;17.73;;;8.10;98.70;;;;;;5119444;28;20234;-46
2022/03/18 05:18:51;;;;;;;22.67;18.20;;;8.10;98.70;;;;;;5117734;28;20437;-45
2022/03/18 05:21:17;;;;;;;21.13;18.80;;;8.10;98.60;;;;;;5120175;28;20424;-46
2022/03/18 05:23:42;;;;;;;18.43;16.47;;;8.10;98.70;;;;;;5118471;28;20422;-45
2022/03/18 05:26:08;;;;;;;19.07;17.07;;;8.10;99.00;;;;;;5120753;28;20204;-46
2022/03/18 05:28:34;;;;;;;20.17;17.67;;;8.10;98.60;;;;;;5118469;28;20620;-46
2022/03/18 05:30:59;;;;;;;21.10;18.90;;;8.00;98.50;;;;;;5120481;28;20199;-46
2022/03/18 05:33:25;;;;;;;23.60;19.40;;;8.00;98.50;;;;;;5118714;28;20200;-46
2022/03/18 05:35:51;;;;;;;21.10;18.90;;;8.00;98.50;;;;;;5120403;28;20645;-46
2022/03/18 05:38:17;;;;;;;21.40;19.20;;;8.10;98.50;;;;;;5118937;28;20464;-46
2022/03/18 05:40:42;;;;;;;21.67;17.87;;;8.10;98.50;;;;;;5119797;28;20183;-46
2022/03/18 05:43:08;;;;;;;21.37;19.17;;;8.00;98.50;;;;;;5119723;28;20195;-46
2022/03/18 05:45:34;;;;;;;22.77;18.57;;;8.00;98.50;;;;;;5120628;28;20197;-46
2022/03/18 05:48:00;;;;;;;25.07;18.73;;;8.00;98.50;;;;;;5136891;27;20441;-46
2022/03/18 05:50:26;;;;;;;20.50;17.50;;;8.00;98.60;;;;;;5141375;27;20246;-46
2022/03/18 05:52:52;;;;;;;21.57;18.43;;;8.00;98.50;;;;;;5140648;27;20781;-46
2022/03/18 05:55:18;;;;;;;21.23;18.47;;;8.00;98.60;;;;;;5141268;27;20461;-46
2022/03/18 05:57:43;;;;;;;22.20;19.83;;;8.00;98.50;;;;;;5136918;27;20392;-46
2022/03/18 06:00:10;;;;;;;21.27;18.77;;;8.00;98.50;;;;;;5118067;27;20187;-46
2022/03/18 06:02:36;;;;;;;20.90;18.50;;;8.00;98.50;;;;;;5138411;27;20463;-46
2022/03/18 06:05:02;;;;;;;19.97;17.87;;;8.00;98.50;;;;;;5135859;27;20438;-46
2022/03/18 06:07:28;;;;;;;22.00;18.57;;;8.00;98.50;;;;;;5135856;27;20495;-46
2022/03/18 06:12:39;;;;;;;23.57;20.10;;;8.00;98.50;;;;;;5121652;28;20404;-46
2022/03/18 06:15:05;;;;;;;21.10;18.80;;;8.00;98.40;;;;;;5139031;27;20507;-46
2022/03/18 06:17:31;;;;;;;20.40;18.20;;;8.00;98.40;;;;;;5137401;27;20413;-46
2022/03/18 06:19:56;;;;;;;23.50;19.80;;;8.10;98.40;;;;;;5118543;27;20436;-46
2022/03/18 06:22:22;;;;;;;22.40;18.57;;;8.10;98.30;;;;;;5136396;27;20179;-46
2022/03/18 06:24:47;;;;;;;22.87;19.13;;;8.10;98.30;;;;;;5136897;27;20184;-46
2022/03/18 06:27:13;;;;;;;22.80;19.90;;;8.10;98.30;;;;;;5138699;28;20267;-46
2022/03/18 06:29:42;;;;;;;22.40;19.20;;;8.10;98.30;;;;;;5120213;28;20182;-46
2022/03/18 06:32:09;;;;;;;22.47;18.57;;;8.20;98.30;;;;;;5118324;28;20168;-46
2022/03/18 06:34:34;;;;;;;23.67;21.00;;;8.20;98.30;;;;;;5135263;28;20766;-46
2022/03/18 06:37:00;;;;;;;24.07;20.40;;;8.20;98.30;;;;;;5120105;28;20441;-46
2022/03/18 06:39:26;;;;;;;24.13;21.50;;;8.20;98.30;;;;;;5119884;28;20179;-46
2022/03/18 06:41:52;;;;;;;23.13;20.63;;;8.20;98.20;;;;;;5137435;28;20542;-46
2022/03/18 06:44:19;;;;;;;24.90;21.87;;;8.30;98.20;;;;;;5138208;28;20468;-46
2022/03/18 06:46:45;;;;;;;24.43;21.13;;;8.30;98.20;;;;;;5136478;28;20476;-46
2022/03/18 06:49:12;;;;;;;24.97;21.70;;;8.30;98.10;;;;;;5137856;28;20512;-46
2022/03/18 06:51:38;;;;;;;25.70;21.37;;;8.30;98.10;;;;;;5136182;28;20224;-46
2022/03/18 06:54:04;;;;;;;26.93;22.23;;;8.30;98.00;;;;;;5138401;28;20818;-46
2022/03/18 06:56:30;;;;;;;24.10;21.20;;;8.40;98.10;;;;;;5120118;28;20259;-46
2022/03/18 06:58:56;;;;;;;22.57;20.13;;;8.40;98.00;;;;;;5139217;28;20413;-46
2022/03/18 07:01:22;;;;;;;25.70;22.23;;;8.40;98.00;;;;;;5119842;28;21100;-46
2022/03/18 07:03:48;;;;;;;26.70;22.40;;;8.50;98.00;;;;;;5138157;28;20413;-46
2022/03/18 07:06:14;;;;;;;24.70;21.40;;;8.50;97.90;;;;;;5136041;28;20203;-46
2022/03/18 07:08:40;;;;;;;25.37;20.80;;;8.60;97.80;;;;;;5139686;28;20421;-46
2022/03/18 07:11:05;;;;;;;26.60;23.70;;;8.60;97.80;;;;;;5136952;28;20190;-46
2022/03/18 07:13:31;;;;;;;26.90;21.80;;;8.70;97.70;;;;;;5139218;28;20172;-46
2022/03/18 07:17:54;;;;;;;27.20;24.20;;;8.70;97.60;;;;;;5138283;27;20180;-46
2022/03/18 07:18:42;;;;;;;27.67;23.57;;;8.70;97.60;;;;;;5141697;27;20229;-46
2022/03/18 07:21:08;;;;;;;29.60;24.97;;;8.80;97.50;;;;;;5139816;27;20471;-46
2022/03/18 07:23:34;;;;;;;25.67;22.87;;;8.80;97.50;;;;;;5141673;27;20260;-46
2022/03/18 07:26:00;;;;;;;29.90;22.70;;;8.90;97.50;;;;;;5119839;27;21063;-46
2022/03/18 07:28:25;;;;;;;25.53;22.77;;;8.90;97.30;;;;;;5141026;27;20179;-45
2022/03/18 07:30:52;;;;;;;25.73;22.10;;;8.90;97.30;;;;;;5140156;27;20197;-46
2022/03/18 07:33:18;;;;;;;26.30;22.20;;;9.00;97.20;;;;;;5142417;27;20295;-46
2022/03/18 07:35:43;;;;;;;25.67;22.97;;;9.10;97.20;;;;;;5119181;28;20610;-46
2022/03/18 07:38:09;;;;;;;29.30;24.60;;;9.10;97.10;;;;;;5121641;28;20181;-46
2022/03/18 07:40:39;;;;;;;29.00;23.47;;;9.20;97.00;;;;;;5120994;28;20212;-46
2022/03/18 07:43:09;;;;;;;27.03;24.13;;;9.30;96.90;;;;;;5120352;28;20221;-46
2022/03/18 07:45:35;;;;;;;28.30;23.57;;;9.40;96.80;;;;;;5120055;28;20440;-46
2022/03/18 07:48:03;;;;;;;28.17;23.87;;;9.50;96.60;;;;;;5119955;28;20432;-46
2022/03/18 07:50:30;;;;;;;30.10;26.30;;;9.60;96.30;;;;;;5120235;28;20436;-46
2022/03/18 07:53:00;;;;;;;27.77;24.77;;;9.80;96.10;;;;;;5121574;28;20469;-46
2022/03/18 07:55:28;;;;;;;34.37;28.10;;;9.90;95.80;;;;;;5118824;28;20424;-46
2022/03/18 07:57:54;;;;;;;29.67;25.20;;;10.00;95.00;;;;;;5119354;28;20412;-46
2022/03/18 08:00:20;;;;;;;27.67;23.90;;;10.20;94.90;;;;;;5119689;28;20494;-46
2022/03/18 08:02:48;;;;;;;29.33;26.23;;;10.40;94.70;;;;;;5120864;28;20442;-46
2022/03/18 08:05:14;;;;;;;30.87;26.33;;;10.50;94.40;;;;;;5121233;28;20517;-46
2022/03/18 08:07:40;;;;;;;28.23;25.17;;;10.60;94.10;;;;;;5121628;28;20465;-46
2022/03/18 08:10:10;;;;;;;31.13;25.93;;;10.70;93.90;;;;;;5120022;28;21539;-46
2022/03/18 08:12:36;;;;;;;28.50;24.43;;;10.80;93.80;;;;;;5120058;28;20394;-46
2022/03/18 08:15:10;;;;;;;29.63;26.33;;;10.80;93.60;;;;;;5120341;28;20510;-46
2022/03/18 08:17:43;;;;;;;32.93;26.13;;;10.90;93.40;;;;;;5119341;28;20726;-46
2022/03/18 08:20:12;;;;;;;28.33;25.27;;;10.90;93.30;;;;;;5119394;28;20435;-46
2022/03/18 08:22:37;;;;;;;29.40;26.23;;;10.90;93.20;;;;;;5119178;28;20715;-46
2022/03/18 08:25:04;;;;;;;31.60;27.07;;;11.00;93.10;;;;;;5119572;28;20432;-46
2022/03/18 08:27:30;;;;;;;33.20;28.40;;;11.00;93.00;;;;;;5120867;28;20555;-46
2022/03/18 08:29:59;;;;;;;30.27;26.30;;;11.00;92.80;;;;;;5119280;28;20452;-46
2022/03/18 08:32:28;;;;;;;31.40;27.10;;;11.00;92.80;;;;;;5119018;28;20511;-46
2022/03/18 08:34:57;;;;;;;29.07;26.00;;;11.00;92.70;;;;;;5118875;28;20465;-46
2022/03/18 08:40:09;;;;;;;32.43;28.20;;;11.00;92.70;;;;;;5116335;28;20448;-46
2022/03/18 08:42:35;;;;;;;35.23;29.40;;;11.10;92.70;;;;;;5118103;28;20413;-46
2022/03/18 08:45:02;;;;;;;34.10;30.07;;;11.20;92.70;;;;;;5117267;28;20423;-46
2022/03/18 08:47:27;;;;;;;35.97;29.20;;;11.40;92.40;;;;;;5117427;28;20452;-46
2022/03/18 08:49:53;;;;;;;34.27;28.33;;;11.60;92.10;;;;;;5117360;28;20735;-46
2022/03/18 08:52:19;;;;;;;35.00;30.87;;;11.80;91.80;;;;;;5119803;28;20165;-46
2022/03/18 08:54:44;;;;;;;33.30;29.80;;;12.00;91.40;;;;;;5117759;28;20462;-46
2022/03/18 08:57:10;;;;;;;31.70;28.10;;;12.10;91.20;;;;;;5118633;28;20180;-46
2022/03/18 08:59:36;;;;;;;35.03;31.30;;;12.10;90.90;;;;;;5115673;28;20667;-46
2022/03/18 09:02:02;;;;;;;34.73;30.50;;;12.30;91.00;;;;;;5115787;28;20509;-46
2022/03/18 09:04:27;;;;;;;36.40;29.90;;;12.40;90.50;;;;;;5116975;28;20269;-46
2022/03/18 09:06:54;;;;;;;38.27;33.30;;;12.50;90.20;;;;;;5116451;28;20472;-46
2022/03/18 09:09:19;;;;;;;36.53;30.77;;;12.60;89.80;;;;;;5119077;28;20173;-46
2022/03/18 09:11:45;;;;;;;32.03;28.30;;;12.70;89.20;;;;;;5119711;28;20422;-46
2022/03/18 09:14:11;;;;;;;35.83;32.03;;;12.80;89.20;;;;;;5119059;28;20168;-46
2022/03/18 09:16:38;;;;;;;19.27;16.40;;;12.90;87.70;;;;;;5115977;28;20366;-46
2022/03/18 09:19:04;;;;;;;14.70;12.60;;;13.10;90.90;;;;;;5117593;28;20705;-47
2022/03/18 09:21:30;;;;;;;15.20;13.60;;;13.50;91.80;;;;;;5116864;28;20422;-47
2022/03/18 09:23:56;;;;;;;19.60;17.67;;;13.90;91.60;;;;;;5119377;28;20422;-44
2022/03/18 09:26:21;;;;;;;19.57;17.20;;;14.30;90.80;;;;;;5116025;28;20243;-44
2022/03/18 09:28:47;;;;;;;18.20;16.40;;;14.60;90.20;;;;;;5117393;28;20180;-44
2022/03/18 09:31:13;;;;;;;20.30;18.30;;;14.90;88.70;;;;;;5116607;28;20188;-44
2022/03/18 09:33:41;;;;;;;19.47;17.50;;;15.20;87.00;;;;;;5118074;28;20432;-45
2022/03/18 09:36:10;;;;;;;19.20;17.20;;;15.40;85.70;;;;;;5115861;28;20847;-45
2022/03/18 09:38:37;;;;;;;19.47;17.27;;;15.70;84.10;;;;;;5117438;28;20833;-45
2022/03/18 09:41:03;;;;;;;13.33;10.50;;;16.00;83.10;;;;;;5114280;28;20418;-44
2022/03/18 09:43:36;;;;;;;16.43;14.73;;;16.60;84.20;;;;;;5115897;28;20506;-44
2022/03/18 09:46:04;;;;;;;15.03;13.57;;;17.20;81.30;;;;;;5115618;28;20763;-44
2022/03/18 09:48:30;;;;;;;16.40;14.70;;;17.50;78.80;;;;;;5117677;27;20410;-45
2022/03/18 09:50:55;;;;;;;15.77;14.00;;;18.00;76.80;;;;;;5114208;28;20845;-45
2022/03/18 09:53:21;;;;;;;15.33;13.73;;;18.50;74.60;;;;;;5115326;28;20420;-44
2022/03/18 09:55:49;;;;;;;16.37;14.67;;;18.90;72.30;;;;;;5113030;28;20323;-44
2022/03/18 09:58:15;;;;;;;16.10;14.40;;;19.50;69.40;;;;;;5116371;28;20444;-44
2022/03/18 10:00:40;;;;;;;15.67;14.27;;;20.10;66.70;;;;;;5115071;28;20432;-45
2022/03/18 10:03:11;;;;;;;15.90;14.30;;;20.60;64.00;;;;;;5113783;28;20517;-44
2022/03/18 10:05:52;;;;;;;15.90;14.20;;;21.00;61.90;;;;;;5114188;28;20466;-44
2022/03/18 10:08:17;;;;;;;22.97;19.00;;;21.30;59.40;;;;;;5115590;28;20662;-46
2022/03/18 10:10:46;;;;;;;23.20;20.80;;;21.20;57.30;;;;;;5115979;28;20479;-46
2022/03/18 10:13:13;;;;;;;23.73;21.33;;;21.00;55.70;;;;;;5118520;28;20410;-46
2022/03/18 10:15:39;;;;;;;22.83;20.73;;;20.80;55.10;;;;;;5115866;28;20431;-46
2022/03/18 10:18:04;;;;;;;24.23;21.70;;;20.70;54.60;;;;;;5118577;28;20446;-46
2022/03/18 10:20:30;;;;;;;23.17;20.87;;;20.90;53.70;;;;;;5115949;28;20517;-46
2022/03/18 10:23:09;;;;;;;25.27;22.87;;;21.30;53.30;;;;;;5115987;28;20414;-46
2022/03/18 10:25:37;;;;;;;23.77;21.37;;;21.80;51.80;;;;;;5115125;28;20486;-46
2022/03/18 10:28:06;;;;;;;25.87;23.37;;;22.30;50.70;;;;;;5115691;28;20407;-46
2022/03/18 10:30:32;;;;;;;23.93;21.50;;;22.60;49.10;;;;;;5114004;28;20518;-46
2022/03/18 10:32:58;;;;;;;25.63;22.93;;;22.80;48.40;;;;;;5115015;28;20696;-46
2022/03/18 10:38:33;;;;;;;22.40;20.20;;;23.10;47.60;;;;;;5115223;28;20459;-46
2022/03/18 10:41:07;;;;;;;24.97;22.57;;;23.40;46.50;;;;;;5115719;28;20541;-46
2022/03/18 10:43:57;;;;;;;23.93;21.83;;;23.80;46.10;;;;;;5116520;28;20879;-46
2022/03/18 10:46:23;;;;;;;23.30;21.10;;;24.50;44.70;;;;;;5116611;28;20534;-46
2022/03/18 10:49:03;;;;;;;25.40;23.10;;;25.00;43.80;;;;;;5114905;28;20433;-46
2022/03/18 10:51:29;;;;;;;23.30;21.10;;;25.50;42.20;;;;;;5117562;28;20185;-46
2022/03/18 10:53:56;;;;;;;22.10;20.10;;;25.60;41.50;;;;;;5119807;28;20489;-46
2022/03/18 10:56:21;;;;;;;23.53;21.40;;;25.70;40.90;;;;;;5116985;28;20188;-46
2022/03/18 10:58:47;;;;;;;24.47;22.27;;;25.80;40.40;;;;;;5117952;28;20431;-46
2022/03/18 11:01:13;;;;;;;25.87;23.37;;;25.80;40.00;;;;;;5119897;28;20182;-46
2022/03/18 11:03:40;;;;;;;23.70;21.40;;;25.90;39.80;;;;;;5118156;28;20179;-47
2022/03/18 11:06:06;;;;;;;23.60;21.60;;;26.10;39.40;;;;;;5117830;28;20468;-46
2022/03/18 11:08:46;;;;;;;23.00;20.87;;;26.30;39.30;;;;;;5119550;28;20417;-46
2022/03/18 11:11:21;;;;;;;23.00;20.90;;;26.70;38.60;;;;;;5118250;28;20446;-46
2022/03/18 11:14:03;;;;;;;23.47;21.33;;;27.10;37.90;;;;;;5117756;28;20716;-47
2022/03/18 11:16:34;;;;;;;23.13;21.03;;;27.10;37.50;;;;;;5117035;28;20446;-46
2022/03/18 11:19:06;;;;;;;23.00;21.00;;;27.30;37.00;;;;;;5119357;28;20475;-46
2022/03/18 11:21:41;;;;;;;23.00;21.00;;;27.50;37.20;;;;;;5119571;28;20774;-47
2022/03/18 11:24:09;;;;;;;25.00;22.70;;;27.70;36.90;;;;;;5115830;28;20463;-46
2022/03/18 11:26:35;;;;;;;25.00;22.50;;;27.60;36.30;;;;;;5118733;28;20503;-48
2022/03/18 11:29:09;;;;;;;22.73;20.77;;;27.40;35.90;;;;;;5117288;28;20448;-47
2022/03/18 11:31:35;;;;;;;24.30;22.10;;;27.60;35.80;;;;;;5118859;28;20670;-48
2022/03/18 11:34:17;;;;;;;24.17;21.90;;;28.10;35.80;;;;;;5117473;28;20443;-47
2022/03/18 11:37:04;;;;;;;25.90;23.50;;;28.60;35.50;;;;;;5103568;28;20458;-48
2022/03/18 11:39:30;;;;;;;20.10;18.20;;;28.90;34.80;;;;;;5098606;28;20480;-45
2022/03/18 11:42:02;;;;;;;20.83;19.03;;;29.20;34.80;;;;;;5097700;28;20451;-46
2022/03/18 11:44:40;;;;;;;20.27;18.33;;;28.80;35.20;;;;;;5094219;28;20190;-45
2022/03/18 11:47:29;;;;;;;18.00;16.50;;;28.50;35.50;;;;;;5095743;28;20490;-47
2022/03/18 11:49:55;;;;;;;19.03;17.23;;;28.40;36.20;;;;;;5090723;28;20438;-45
2022/03/18 11:52:21;;;;;;;20.40;18.60;;;28.40;36.10;;;;;;5103082;28;20768;-46
2022/03/18 11:55:06;;;;;;;20.57;18.73;;;28.30;35.90;;;;;;5099344;28;20534;-45
2022/03/18 11:57:45;;;;;;;22.67;20.83;;;28.40;35.60;;;;;;5104580;28;20187;-45
2022/03/18 12:00:36;;;;;;;18.80;17.20;;;28.60;34.90;;;;;;5105811;28;20932;-45
2022/03/18 12:03:02;;;;;;;21.37;19.47;;;28.70;35.40;;;;;;5095569;28;20696;-45
2022/03/18 12:05:33;;;;;;;22.90;21.00;;;29.20;35.10;;;;;;5103090;28;20834;-46
2022/03/18 12:07:59;;;;;;;21.20;19.40;;;29.10;34.40;;;;;;5110517;28;20448;-45
2022/03/18 12:10:34;;;;;;;21.67;19.77;;;29.20;34.80;;;;;;5086356;28;20453;-45
2022/03/18 12:13:02;;;;;;;21.30;19.43;;;29.60;34.50;;;;;;5107534;28;20505;-45
2022/03/18 12:15:29;;;;;;;20.50;18.70;;;29.90;34.30;;;;;;5106865;28;20698;-45
2022/03/18 12:17:58;;;;;;;18.07;16.47;;;29.60;34.40;;;;;;5106801;28;20905;-45
2022/03/18 12:20:30;;;;;;;21.00;19.30;;;29.40;34.70;;;;;;5104736;28;20392;-45
2022/03/18 12:23:04;;;;;;;22.70;20.70;;;29.00;34.20;;;;;;5103455;28;20412;-45
2022/03/18 12:25:30;;;;;;;23.67;21.67;;;28.60;34.10;;;;;;5106386;28;20403;-45
2022/03/18 12:27:56;;;;;;;23.53;21.43;;;28.10;34.40;;;;;;5104186;28;20500;-45
2022/03/18 12:30:26;;;;;;;21.80;19.77;;;27.80;34.80;;;;;;5101667;28;20168;-46
2022/03/18 12:32:56;;;;;;;22.43;20.50;;;27.70;35.20;;;;;;5104557;28;20408;-44
2022/03/18 12:35:38;;;;;;;22.20;20.33;;;27.70;35.20;;;;;;5105603;28;20458;-45
2022/03/18 12:38:08;;;;;;;21.70;19.90;;;27.50;35.40;;;;;;5105161;28;20506;-45
2022/03/18 12:40:36;;;;;;;21.30;19.30;;;27.50;35.30;;;;;;5115844;28;20493;-45
2022/03/18 12:43:03;;;;;;;22.83;20.93;;;27.20;35.60;;;;;;5116030;28;20427;-45
2022/03/18 12:45:32;;;;;;;22.37;20.47;;;27.20;35.50;;;;;;5116350;27;20420;-45
2022/03/18 12:48:15;;;;;;;20.30;18.57;;;26.80;35.60;;;;;;5113023;28;20404;-45
2022/03/18 12:50:44;;;;;;;20.47;18.73;;;26.50;36.00;;;;;;5111938;28;20406;-45
2022/03/18 12:53:26;;;;;;;20.37;18.60;;;26.10;36.40;;;;;;5109638;28;20718;-44